Time;durP1;ratioP1;P1;durP2;ratioP2;P2;SDS_P1;SDS_P2;PMS_P1;PMS_P2;Temp;Humidity;BMP_temperature;BMP_pressure;BME280_temperature;BME280_humidity;BME280_pressure;Samples;Min_cycle;Max_cycle;Signal;HPM_P1;HPM_P2
2022/03/30 00:01:02;;;;;;;;;;;;;;;;;;5027521;28;20422;-48
2022/03/30 00:03:28;;;;;;;;;;;;;;;;;;5041781;28;19956;-49
2022/03/30 00:05:54;;;;;;;;;;;;;;;;;;5047735;28;19936;-46
2022/03/30 00:08:20;;;;;;;;;;;;;;;;;;5045475;28;19939;-50
2022/03/30 00:10:46;;;;;;;;;;;;;;;;;;5046099;28;19912;-46
2022/03/30 00:13:12;;;;;;;;;;;;;;;;;;5042457;28;19924;-51
2022/03/30 00:15:38;;;;;;;;;;;;;;;;;;5042276;28;20386;-49
2022/03/30 00:18:04;;;;;;;;;;;;;;;;;;5041484;28;19909;-52
2022/03/30 00:20:30;;;;;;;;;;;;;;;;;;5036425;28;20324;-47
2022/03/30 00:22:56;;;;;;;;;;;;;;;;;;5036128;28;19905;-49
2022/03/30 00:25:22;;;;;;;;;;;;;;;;;;5027519;28;19909;-51
2022/03/30 00:27:48;;;;;;;;;;;;;;;;;;5025600;28;19916;-51
2022/03/30 00:30:14;;;;;;;;;;;;;;;;;;5026356;28;20053;-49
2022/03/30 00:32:40;;;;;;;;;;;;;;;;;;5026334;28;19908;-49
2022/03/30 00:35:06;;;;;;;;;;;;;;;;;;5034335;28;20430;-49
2022/03/30 00:37:32;;;;;;;;;;;;;;;;;;5046048;28;20299;-47
2022/03/30 00:39:58;;;;;;;;;;;;;;;;;;5046431;28;19913;-49
2022/03/30 00:42:24;;;;;;;;;;;;;;;;;;5046030;28;20331;-47
2022/03/30 00:44:50;;;;;;;;;;;;;;;;;;5046539;28;19909;-50
2022/03/30 00:47:16;;;;;;;;;;;;;;;;;;5046033;28;19905;-48
2022/03/30 00:49:42;;;;;;;;;;;;;;;;;;5038169;28;19916;-50
2022/03/30 00:52:08;;;;;;;;;;;;;;;;;;5026063;28;20335;-50
2022/03/30 00:54:34;;;;;;;;;;;;;;;;;;5026054;28;20295;-49
2022/03/30 00:57:00;;;;;;;;;;;;;;;;;;5026186;28;20347;-49
2022/03/30 00:59:26;;;;;;;;;;;;;;;;;;5026024;28;20557;-51
2022/03/30 01:01:52;;;;;;;;;;;;;;;;;;5026229;28;20273;-48
2022/03/30 01:04:18;;;;;;;;;;;;;;;;;;5026343;28;20339;-51
2022/03/30 01:06:45;;;;;;;;;;;;;;;;;;5025831;28;20830;-50
2022/03/30 01:09:11;;;;;;;;;;;;;;;;;;4982577;28;1212472;-50
2022/03/30 01:11:38;;;;;;;;;;;;;;;;;;5026546;28;19905;-49
2022/03/30 01:14:04;;;;;;;;;;;;;;;;;;5031182;28;19909;-51
2022/03/30 01:16:30;;;;;;;;;;;;;;;;;;5046410;28;19915;-47
2022/03/30 01:18:56;;;;;;;;;;;;;;;;;;5045883;28;19909;-47
2022/03/30 01:21:22;;;;;;;;;;;;;;;;;;5047086;28;20383;-48
2022/03/30 01:23:48;;;;;;;;;;;;;;;;;;5041944;28;19923;-48
2022/03/30 01:26:14;;;;;;;;;;;;;;;;;;5026544;28;19916;-47
2022/03/30 01:28:40;;;;;;;;;;;;;;;;;;5026438;28;19908;-49
2022/03/30 01:33:51;;;;;;;;;;;;;;;;;;5027238;28;20036;-47
2022/03/30 01:36:17;;;;;;;;;;;;;;;;;;5026556;28;19984;-50
2022/03/30 01:38:44;;;;;;;;;;;;;;;;;;5029999;28;20456;-47
2022/03/30 01:41:10;;;;;;;;;;;;;;;;;;5045882;28;20178;-50
2022/03/30 01:43:36;;;;;;;;;;;;;;;;;;5045966;28;19909;-47
2022/03/30 01:46:02;;;;;;;;;;;;;;;;;;5046136;28;19983;-52
2022/03/30 01:48:28;;;;;;;;;;;;;;;;;;5045736;28;19950;-50
2022/03/30 01:50:54;;;;;;;;;;;;;;;;;;5045611;28;19904;-46
2022/03/30 01:53:20;;;;;;;;;;;;;;;;;;5046417;28;19908;-50
2022/03/30 01:55:46;;;;;;;;;;;;;;;;;;5043837;28;19919;-48
2022/03/30 01:58:12;;;;;;;;;;;;;;;;;;5043999;28;19966;-50
2022/03/30 02:00:38;;;;;;;;;;;;;;;;;;5045421;28;19909;-50
2022/03/30 02:03:04;;;;;;;;;;;;;;;;;;5045595;28;19905;-48
2022/03/30 02:05:31;;;;;;;;;;;;;;;;;;5045453;28;19915;-49
2022/03/30 02:07:57;;;;;;;;;;;;;;;;;;5045663;28;19999;-50
2022/03/30 02:10:23;;;;;;;;;;;;;;;;;;5046311;28;20012;-49
2022/03/30 02:12:49;;;;;;;;;;;;;;;;;;5034542;28;20422;-47
2022/03/30 02:15:15;;;;;;;;;;;;;;;;;;5025479;28;19913;-49
2022/03/30 02:17:41;;;;;;;;;;;;;;;;;;5025177;28;19913;-47
2022/03/30 02:20:07;;;;;;;;;;;;;;;;;;5025581;28;19916;-47
2022/03/30 02:22:33;;;;;;;;;;;;;;;;;;5037392;28;19905;-50
2022/03/30 02:24:58;;;;;;;;;;;;;;;;;;5046157;28;19919;-47
2022/03/30 02:27:24;;;;;;;;;;;;;;;;;;5040047;28;19909;-47
2022/03/30 02:29:50;;;;;;;;;;;;;;;;;;5045881;28;19916;-47
2022/03/30 02:32:16;;;;;;;;;;;;;;;;;;5045087;28;19931;-47
2022/03/30 02:34:43;;;;;;;;;;;;;;;;;;5044962;28;19954;-46
2022/03/30 02:37:09;;;;;;;;;;;;;;;;;;5045313;28;19905;-49
2022/03/30 02:39:35;;;;;;;;;;;;;;;;;;5026831;28;20450;-46
2022/03/30 02:42:01;;;;;;;12.63;4.10;;;;;;;;;;5024483;28;20927;-46
2022/03/30 02:44:28;;;;;;;13.10;3.97;;;;;;;;;;5025009;28;20030;-49
2022/03/30 02:46:54;;;;;;;10.30;3.70;;;;;;;;;;5025145;28;20507;-49
2022/03/30 02:49:21;;;;;;;10.95;3.38;;;;;;;;;;5025350;28;20053;-47
2022/03/30 02:51:47;;;;;;;12.80;3.78;;;;;;;;;;5024239;28;20034;-46
2022/03/30 02:54:13;;;;;;;12.65;3.70;;;;;;;;;;5024128;28;20025;-48
2022/03/30 02:56:39;;;;;;;12.27;3.70;;;;;;;;;;5024406;28;20036;-47
2022/03/30 02:59:05;;;;;;;12.43;3.67;;;;;;;;;;5024682;28;20064;-47
2022/03/30 03:01:32;;;;;;;12.90;4.78;;;;;;;;;;5024145;28;20029;-47
2022/03/30 03:03:58;;;;;;;8.30;3.80;;;;;;;;;;5024285;28;20079;-48
2022/03/30 03:06:25;;;;;;;11.02;4.03;;;;;;;;;;5024723;28;20473;-46
2022/03/30 03:08:51;;;;;;;9.07;3.17;;;;;;;;;;5038890;28;20048;-46
2022/03/30 03:11:17;;;;;;;11.63;3.53;;;;;;;;;;5044448;28;20032;-46
2022/03/30 03:13:43;;;;;;;12.88;3.83;;;;;;;;;;5044039;28;20158;-47
2022/03/30 03:16:11;;;;;;;11.70;3.80;;;;;;;;;;5043007;28;20031;-46
2022/03/30 03:18:37;;;;;;;13.05;4.25;;;;;;;;;;5044380;28;20044;-46
2022/03/30 03:21:03;;;;;;;16.23;4.88;;;;;;;;;;5043060;28;20040;-46
2022/03/30 03:23:30;;;;;;;13.60;4.25;;;;;;;;;;5043914;28;20047;-47
2022/03/30 03:25:56;;;;;;;13.25;3.80;;;;;;;;;;5044409;28;20408;-48
2022/03/30 03:28:22;;;;;;;10.73;4.35;;;;;;;;;;5044918;28;20063;-45
2022/03/30 03:30:48;;;;;;;13.23;4.57;;;;;;;;;;5044032;28;20032;-45
2022/03/30 03:33:15;;;;;;;15.95;3.90;;;;;;;;;;5042311;28;20516;-49
2022/03/30 03:35:41;;;;;;;10.32;4.07;;;;;;;;;;5024007;28;20053;-47
2022/03/30 03:38:10;;;;;;;10.85;3.55;;;;;;;;;;5024129;28;20549;-46
2022/03/30 03:40:37;;;;;;;14.80;4.18;;;;;;;;;;5037392;28;20037;-47
2022/03/30 03:43:04;;;;;;;11.35;3.72;;;;;;;;;;5044105;28;20096;-50
2022/03/30 03:45:30;;;;;;;13.25;4.00;;;;;;;;;;5043821;28;20506;-50
2022/03/30 03:47:57;;;;;;;16.58;4.35;;;;;;;;;;5044575;28;20463;-48
2022/03/30 03:50:23;;;;;;;13.40;3.78;;;;;;;;;;5043066;28;20496;-49
2022/03/30 03:52:49;;;;;;;16.80;5.30;;;;;;;;;;5044326;28;20028;-47
2022/03/30 03:55:16;;;;;;;13.02;3.85;;;;;;;;;;5025784;28;20485;-50
2022/03/30 03:57:42;;;;;;;14.52;4.88;;;;;;;;;;5023918;28;20524;-47
2022/03/30 04:00:10;;;;;;;16.52;4.30;;;;;;;;;;5023727;28;20124;-50
2022/03/30 04:02:36;;;;;;;13.40;3.70;;;;;;;;;;5024250;28;20450;-45
2022/03/30 04:05:02;;;;;;;10.85;3.65;;;;;;;;;;5028001;28;20025;-45
2022/03/30 04:07:29;;;;;;;11.98;4.07;;;;;;;;;;5027725;28;20026;-47
2022/03/30 04:09:55;;;;;;;19.30;4.40;;;;;;;;;;5027002;28;20120;-43
2022/03/30 04:12:21;;;;;;;11.88;4.32;;;;;;;;;;5028006;28;20037;-47
2022/03/30 04:14:48;;;;;;;9.10;3.10;;;;;;;;;;5027283;28;20075;-48
2022/03/30 04:17:14;;;;;;;14.05;4.43;;;;;;;;;;5027436;28;20033;-47
2022/03/30 04:19:40;;;;;;;11.20;3.78;;;;;;;;;;5027289;28;20072;-49
2022/03/30 04:22:06;;;;;;;7.90;3.40;;;;;;;;;;5027394;28;20057;-46
2022/03/30 04:24:32;;;;;;;13.05;4.13;;;;;;;;;;5026606;28;20033;-49
2022/03/30 04:26:58;;;;;;;14.07;4.07;;;;;;;;;;5027259;28;20014;-48
2022/03/30 04:29:24;;;;;;;16.55;4.25;;;;;;;;;;5026978;28;20136;-48
2022/03/30 04:31:51;;;;;;;14.13;3.60;;;;;;;;;;5027971;28;20052;-50
2022/03/30 04:34:18;;;;;;;13.40;4.13;;;;;;;;;;5027387;28;20497;-49
2022/03/30 04:36:44;;;;;;;8.50;3.28;;;;;;;;;;5034421;28;20040;-50
2022/03/30 04:39:10;;;;;;;13.98;3.88;;;;;;;;;;5046872;28;20474;-46
2022/03/30 04:41:36;;;;;;;9.50;2.60;;;;;;;;;;5046838;28;20025;-47
2022/03/30 04:44:02;;;;;;;8.35;3.45;;;;;;;;;;5047187;28;20025;-48
2022/03/30 04:46:29;;;;;;;11.48;4.22;;;;;;;;;;5046327;28;20104;-48
2022/03/30 04:48:55;;;;;;;15.20;3.35;;;;;;;;;;5047038;28;20025;-48
2022/03/30 04:51:21;;;;;;;14.68;3.83;;;;;;;;;;5046225;28;20033;-51
2022/03/30 04:53:47;;;;;;;13.02;3.15;;;;;;;;;;5046691;28;20139;-50
2022/03/30 04:56:13;;;;;;;10.05;4.00;;;;;;;;;;5046578;28;20028;-48
2022/03/30 04:58:39;;;;;;;9.52;3.33;;;;;;;;;;5041039;28;20084;-47
2022/03/30 05:01:06;;;;;;;12.63;3.50;;;;;;;;;;5026362;28;20117;-50
2022/03/30 05:03:32;;;;;;;13.75;4.47;;;;;;;;;;5026383;28;20037;-46
2022/03/30 05:05:59;;;;;;;9.50;3.50;;;;;;;;;;5026827;28;20598;-50
2022/03/30 05:08:25;;;;;;;11.18;4.30;;;;;;;;;;5026526;28;20029;-49
2022/03/30 05:10:51;;;;;;;12.98;4.03;;;;;;;;;;5026779;28;20132;-48
2022/03/30 05:13:17;;;;;;;12.48;4.13;;;;;;;;;;5029286;28;20037;-46
2022/03/30 05:15:43;;;;;;;8.90;3.83;;;;;;;;;;5044773;28;20045;-47
2022/03/30 05:18:11;;;;;;;13.43;4.18;;;;;;;;;;5046642;28;20112;-50
2022/03/30 05:20:38;;;;;;;9.32;3.55;;;;;;;;;;5046104;28;20025;-50
2022/03/30 05:23:04;;;;;;;9.90;3.90;;;;;;;;;;5046011;28;20538;-48
2022/03/30 05:25:31;;;;;;;11.30;3.40;;;;;;;;;;5045911;28;20029;-50
2022/03/30 05:27:57;;;;;;;8.00;3.33;;;;;;;;;;5045246;28;20106;-49
2022/03/30 05:30:23;;;;;;;6.07;2.83;;;;;;;;;;5046649;28;20039;-48
2022/03/30 05:32:50;;;;;;;13.90;3.35;;;;;;;;;;5046032;28;20512;-50
2022/03/30 05:35:16;;;;;;;4.78;2.75;;;;;;;;;;5045952;28;20444;-49
2022/03/30 05:37:46;;;;;;;9.27;3.25;;;;;;;;;;5044211;28;20126;-50
2022/03/30 05:40:12;;;;;;;9.25;4.03;;;;;;;;;;5043582;28;20040;-48
2022/03/30 05:42:38;;;;;;;7.63;3.58;;;;;;;;;;5045206;28;20025;-50
2022/03/30 05:45:05;;;;;;;7.07;3.58;;;;;;;;;;5026443;28;20683;-48
2022/03/30 05:47:32;;;;;;;14.38;5.10;;;;;;;;;;5025639;28;20081;-49
2022/03/30 05:49:58;;;;;;;12.45;5.10;;;;;;;;;;5040435;28;20037;-50
2022/03/30 05:52:24;;;;;;;9.18;5.47;;;;;;;;;;5045553;28;20495;-47
2022/03/30 05:54:50;;;;;;;11.00;5.25;;;;;;;;;;5046231;28;20052;-49
2022/03/30 05:57:18;;;;;;;9.93;5.78;;;;;;;;;;5045575;28;20039;-48
2022/03/30 05:59:45;;;;;;;10.45;5.25;;;;;;;;;;5044966;28;20060;-50
2022/03/30 06:02:12;;;;;;;9.93;5.78;;;;;;;;;;5044244;28;20036;-48
2022/03/30 06:04:39;;;;;;;8.55;4.30;;;;;;;;;;5043991;28;20407;-46
2022/03/30 06:07:06;;;;;;;10.73;5.68;;;;;;;;;;5045304;28;20108;-48
2022/03/30 06:09:35;;;;;;;7.38;4.53;;;;;;;;;;5045086;28;20033;-48
2022/03/30 06:12:02;;;;;;;6.65;3.58;;;;;;;;;;5045173;28;20029;-46
2022/03/30 06:14:28;;;;;;;5.60;3.50;;;;;;;;;;5041838;28;20040;-47
2022/03/30 06:16:54;;;;;;;7.57;3.50;;;;;;;;;;5046770;28;20032;-48
2022/03/30 06:19:21;;;;;;;4.28;2.95;;;;;;;;;;5047492;28;20448;-47
2022/03/30 06:21:48;;;;;;;4.55;2.92;;;;;;;;;;5044277;28;20029;-50
2022/03/30 06:24:14;;;;;;;4.25;2.65;;;;;;;;;;5046737;28;20028;-48
2022/03/30 06:26:41;;;;;;;3.47;2.40;;;;;;;;;;5033845;28;20127;-48
2022/03/30 06:29:08;;;;;;;5.40;2.25;;;;;;;;;;5038406;28;20050;-46
2022/03/30 06:31:34;;;;;;;7.60;2.33;;;;;;;;;;5034015;28;20344;-48
2022/03/30 06:34:02;;;;;;;3.83;2.30;;;;;;;;;;5025030;28;20030;-49
2022/03/30 06:36:30;;;;;;;3.80;2.05;;;;;;;;;;5025178;28;20531;-47
2022/03/30 06:38:56;;;;;;;5.22;2.03;;;;;;;;;;5024740;28;20105;-49
2022/03/30 06:41:24;;;;;;;3.42;1.95;;;;;;;;;;5025457;28;20021;-47
2022/03/30 06:43:51;;;;;;;4.47;1.92;;;;;;;;;;5025142;28;20028;-50
2022/03/30 06:46:18;;;;;;;3.08;1.70;;;;;;;;;;5033754;28;20472;-46
2022/03/30 06:48:47;;;;;;;7.05;1.80;;;;;;;;;;5024509;28;20025;-47
2022/03/30 06:51:15;;;;;;;3.33;1.70;;;;;;;;;;5024851;28;20025;-50
2022/03/30 06:53:41;;;;;;;2.85;1.90;;;;;;;;;;5025078;28;20516;-47
2022/03/30 06:56:08;;;;;;;3.75;1.65;;;;;;;;;;5022679;28;20575;-50
2022/03/30 06:58:35;;;;;;;4.85;1.70;;;;;;;;;;5041755;28;20033;-50
2022/03/30 07:01:01;;;;;;;2.85;1.48;;;;;;;;;;5030593;28;20033;-48
2022/03/30 07:03:28;;;;;;;2.28;1.60;;;;;;;;;;5045810;28;20017;-49
2022/03/30 07:05:55;;;;;;;2.20;1.40;;;;;;;;;;5046317;28;20051;-49
2022/03/30 07:11:06;;;;;;;4.85;1.65;;;;;;;;;;5046469;28;20622;-50
2022/03/30 07:13:32;;;;;;;4.47;1.60;;;;;;;;;;5044261;28;20031;-49
2022/03/30 07:15:59;;;;;;;5.20;2.03;;;;;;;;;;5025879;28;20046;-51
2022/03/30 07:18:26;;;;;;;3.67;1.35;;;;;;;;;;5027689;28;20468;-48
2022/03/30 07:20:52;;;;;;;3.90;1.60;;;;;;;;;;5037131;28;20508;-51
2022/03/30 07:23:20;;;;;;;1.88;1.35;;;;;;;;;;5034227;28;20025;-48
2022/03/30 07:25:46;;;;;;;3.67;1.67;;;;;;;;;;5031770;28;20032;-48
2022/03/30 07:28:15;;;;;;;3.65;1.70;;;;;;;;;;5025854;28;20036;-49
2022/03/30 07:30:45;;;;;;;2.25;1.45;;;;;;;;;;5025712;28;20038;-49
2022/03/30 07:33:12;;;;;;;3.95;1.70;;;;;;;;;;5025668;28;20030;-49
2022/03/30 07:35:45;;;;;;;4.47;2.00;;;;;;;;;;5025748;28;20511;-47
2022/03/30 07:38:13;;;;;;;2.22;1.35;;;;;;;;;;5030565;28;20065;-49
2022/03/30 07:40:39;;;;;;;2.90;1.60;;;;;;;;;;5048413;28;20476;-48
2022/03/30 07:43:05;;;;;;;2.15;1.73;;;;;;;;;;5043351;28;20021;-49
2022/03/30 07:45:33;;;;;;;2.85;1.70;;;;;;;;;;5029434;28;20034;-48
2022/03/30 07:47:59;;;;;;;2.85;1.58;;;;;;;;;;5029670;28;20045;-50
2022/03/30 07:50:26;;;;;;;3.95;2.22;;;;;;;;;;5029416;28;20041;-47
2022/03/30 07:52:52;;;;;;;3.80;2.20;;;;;;;;;;5030028;28;20057;-49
2022/03/30 07:55:19;;;;;;;5.78;2.17;;;;;;;;;;5029530;28;20033;-48
2022/03/30 07:57:46;;;;;;;3.22;1.60;;;;;;;;;;5031144;28;20514;-46
2022/03/30 08:00:17;;;;;;;3.90;1.75;;;;;;;;;;5043264;28;20044;-46
2022/03/30 08:02:46;;;;;;;2.15;1.67;;;;;;;;;;5047423;28;20024;-48
2022/03/30 08:05:15;;;;;;;3.80;1.70;;;;;;;;;;5048134;28;20079;-49
2022/03/30 08:07:43;;;;;;;2.85;2.03;;;;;;;;;;5047570;28;20024;-50
2022/03/30 08:10:10;;;;;;;4.22;2.30;;;;;;;;;;5047532;28;20083;-46
2022/03/30 08:12:37;;;;;;;5.47;2.30;;;;;;;;;;5046974;28;20564;-47
2022/03/30 08:15:03;;;;;;;3.63;2.00;;;;;;;;;;5047442;28;20112;-46
2022/03/30 08:17:30;;;;;;;2.65;2.17;;;;;;;;;;5047170;28;20029;-49
2022/03/30 08:19:58;;;;;;;5.30;2.20;;;;;;;;;;5045569;28;20021;-46
2022/03/30 08:22:28;;;;;;;3.70;2.03;;;;;;;;;;5047433;28;20074;-50
2022/03/30 08:24:55;;;;;;;5.05;2.22;;;;;;;;;;5030867;28;20455;-51
2022/03/30 08:27:22;;;;;;;3.75;1.70;;;;;;;;;;5027028;28;20095;-51
2022/03/30 08:29:49;;;;;;;2.97;1.90;;;;;;;;;;5027390;28;20017;-47
2022/03/30 08:32:16;;;;;;;5.18;2.08;;;;;;;;;;5027115;28;20052;-47
2022/03/30 08:34:43;;;;;;;3.25;1.73;;;;;;;;;;5027351;28;20101;-47
2022/03/30 08:37:09;;;;;;;2.53;1.80;;;;;;;;;;5027314;28;20087;-48
2022/03/30 08:39:36;;;;;;;4.13;1.58;;;;;;;;;;5027392;28;20033;-46
2022/03/30 08:42:03;;;;;;;4.63;2.22;;;;;;;;;;5026876;28;20034;-49
2022/03/30 08:44:30;;;;;;;2.92;1.70;;;;;;;;;;5026664;28;20028;-51
2022/03/30 08:46:56;;;;;;;4.30;1.90;;;;;;;;;;5027140;28;20018;-49
2022/03/30 08:49:23;;;;;;;3.85;1.95;;;;;;;;;;5026790;28;20037;-50
2022/03/30 08:51:50;;;;;;;3.13;1.63;;;;;;;;;;5027259;28;20068;-48
2022/03/30 08:54:17;;;;;;;3.17;1.85;;;;;;;;;;5027274;28;20025;-50
2022/03/30 08:56:44;;;;;;;8.38;2.10;;;;;;;;;;5026671;28;20465;-48
2022/03/30 08:59:13;;;;;;;5.28;2.00;;;;;;;;;;5026604;28;20534;-50
2022/03/30 09:01:40;;;;;;;4.13;1.90;;;;;;;;;;5026874;28;20029;-47
2022/03/30 09:04:12;;;;;;;4.10;1.98;;;;;;;;;;5027377;28;20113;-48
2022/03/30 09:07:05;;;;;;;3.33;1.80;;;;;;;;;;5026174;28;20071;-46
2022/03/30 09:09:31;;;;;;;2.10;1.50;;;;;;;;;;5025940;28;20053;-47
2022/03/30 09:11:59;;;;;;;4.72;1.73;;;;;;;;;;5026282;28;20034;-46
2022/03/30 09:14:27;;;;;;;4.00;2.08;;;;;;;;;;5026374;28;20037;-47
2022/03/30 09:16:58;;;;;;;4.93;2.00;;;;;;;;;;5026603;28;20108;-47
2022/03/30 09:19:25;;;;;;;3.65;1.50;;;;;;;;;;5026340;28;20522;-48
2022/03/30 09:21:55;;;;;;;3.13;1.58;;;;;;;;;;5026340;28;20053;-47
2022/03/30 09:24:22;;;;;;;4.50;2.05;;;;;;;;;;5026277;28;20410;-46
2022/03/30 09:26:50;;;;;;;4.65;1.73;;;;;;;;;;5025962;28;20032;-49
2022/03/30 09:29:18;;;;;;;3.88;1.70;;;;;;;;;;5026398;28;20047;-47
2022/03/30 09:31:45;;;;;;;3.08;1.30;;;;;;;;;;5025762;28;20029;-48
2022/03/30 09:34:11;;;;;;;4.93;1.73;;;;;;;;;;5025891;28;20036;-46
2022/03/30 09:36:40;;;;;;;5.75;1.88;;;;;;;;;;5026041;28;20030;-49
2022/03/30 09:39:06;;;;;;;6.22;2.20;;;;;;;;;;5025349;28;20049;-49
2022/03/30 09:41:52;;;;;;;6.05;1.98;;;;;;;;;;5026238;28;20079;-47
2022/03/30 09:44:18;;;;;;;5.32;2.30;;;;;;;;;;5025767;28;20052;-50
2022/03/30 09:47:11;;;;;;;8.75;3.50;;;;;;;;;;5025668;28;20060;-50
2022/03/30 09:49:41;;;;;;;25.02;12.90;;;;;;;;;;5025278;28;20034;-47
2022/03/30 09:52:17;;;;;;;19.73;12.05;;;;;;;;;;5026296;28;20497;-46
2022/03/30 09:54:47;;;;;;;47.47;24.83;;;;;;;;;;5025437;28;20041;-47
2022/03/30 09:57:15;;;;;;;41.63;21.77;;;;;;;;;;5025661;28;20017;-49
2022/03/30 09:59:59;;;;;;;35.67;20.17;;;;;;;;;;5025677;28;20065;-47
2022/03/30 10:02:26;;;;;;;22.02;13.27;;;;;;;;;;5025147;28;20032;-48
2022/03/30 10:04:53;;;;;;;19.15;8.77;;;;;;;;;;5025304;28;20033;-50
2022/03/30 10:07:20;;;;;;;12.88;6.47;;;;;;;;;;5025336;28;20104;-48
2022/03/30 10:09:47;;;;;;;10.90;5.30;;;;;;;;;;5025264;28;20033;-48
2022/03/30 10:12:17;;;;;;;9.55;4.53;;;;;;;;;;5025007;28;20389;-49
2022/03/30 10:14:47;;;;;;;11.48;4.70;;;;;;;;;;5025281;28;20061;-46
2022/03/30 10:17:13;;;;;;;8.70;3.38;;;;;;;;;;5034760;28;20041;-49
2022/03/30 10:19:42;;;;;;;7.53;3.20;;;;;;;;;;5045294;28;20088;-49
2022/03/30 10:22:26;;;;;;;7.78;2.58;;;;;;;;;;5032673;28;20029;-50
2022/03/30 10:25:01;;;;;;;7.00;3.30;;;;;;;;;;5024962;28;20397;-50
2022/03/30 10:27:40;;;;;;;6.00;2.53;;;;;;;;;;5025313;28;20017;-50
2022/03/30 10:30:12;;;;;;;8.13;3.05;;;;;;;;;;5025047;28;20133;-47
2022/03/30 10:32:39;;;;;;;7.78;2.95;;;;;;;;;;5024635;28;20397;-49
2022/03/30 10:35:06;;;;;;;5.88;2.45;;;;;;;;;;5023919;28;20460;-48
2022/03/30 10:37:38;;;;;;;9.13;2.28;;;;;;;;;;5024827;28;20472;-51
2022/03/30 10:40:04;;;;;;;3.85;1.70;;;;;;;;;;5024661;28;20469;-50
2022/03/30 10:42:54;;;;;;;4.35;2.15;;;;;;;;;;5024520;28;20092;-47
2022/03/30 10:45:24;;;;;;;9.45;2.47;;;;;;;;;;5024982;28;20496;-46
2022/03/30 10:48:17;;;;;;;6.97;2.47;;;;;;;;;;5025273;28;20106;-48
2022/03/30 10:50:45;;;;;;;8.80;2.65;;;;;;;;;;5024420;28;20059;-47
2022/03/30 10:53:38;;;;;;;7.97;2.35;;;;;;;;;;5024933;28;20033;-47
2022/03/30 10:56:21;;;;;;;7.40;2.15;;;;;;;;;;5024945;28;20021;-49
2022/03/30 10:58:58;;;;;;;5.43;1.92;;;;;;;;;;5025362;28;20052;-51
2022/03/30 11:01:29;;;;;;;2.85;1.60;;;;;;;;;;5024422;28;20095;-50
2022/03/30 11:04:11;;;;;;;4.78;1.73;;;;;;;;;;5024621;28;20033;-50
2022/03/30 11:06:38;;;;;;;3.92;1.50;;;;;;;;;;5024665;28;20394;-49
2022/03/30 11:09:21;;;;;;;3.30;1.38;;;;;;;;;;5024420;28;20029;-50
2022/03/30 11:11:56;;;;;;;6.10;2.03;;;;;;;;;;5046216;28;20041;-51
2022/03/30 11:14:26;;;;;;;10.48;2.58;;;;;;;;;;5029155;28;20033;-47
2022/03/30 11:16:57;;;;;;;7.45;1.98;;;;;;;;;;5041952;28;20076;-49
2022/03/30 11:19:29;;;;;;;6.60;2.30;;;;;;;;;;5044858;28;20033;-50
2022/03/30 11:21:55;;;;;;;2.92;1.63;;;;;;;;;;5037529;28;20030;-47
2022/03/30 11:24:25;;;;;;;7.82;2.25;;;;;;;;;;5033852;28;20064;-49
2022/03/30 11:26:51;;;;;;;4.40;1.60;;;;;;;;;;5030101;28;20045;-51
2022/03/30 11:29:37;;;;;;;4.93;1.90;;;;;;;;;;5030520;28;20025;-49
2022/03/30 11:32:23;;;;;;;7.07;1.92;;;;;;;;;;5028658;28;20033;-48
2022/03/30 11:34:56;;;;;;;5.45;2.13;;;;;;;;;;5029870;28;20044;-46
2022/03/30 11:37:27;;;;;;;2.63;1.30;;;;;;;;;;5029986;28;20029;-47
2022/03/30 11:40:00;;;;;;;4.68;1.38;;;;;;;;;;5029607;28;20029;-49
2022/03/30 11:42:27;;;;;;;3.85;1.58;;;;;;;;;;5030495;28;20104;-50
2022/03/30 11:47:38;;;;;;;3.15;1.00;;;;;;;;;;5029675;28;20044;-47
2022/03/30 11:50:05;;;;;;;2.20;1.00;;;;;;;;;;5029857;28;20025;-49
2022/03/30 11:52:31;;;;;;;2.30;1.58;;;;;;;;;;5029341;28;20041;-49
2022/03/30 11:54:57;;;;;;;2.58;1.05;;;;;;;;;;5029515;28;20056;-49
2022/03/30 11:57:24;;;;;;;3.78;1.05;;;;;;;;;;5029785;28;20044;-50
2022/03/30 11:59:57;;;;;;;4.05;1.17;;;;;;;;;;5031671;28;20503;-47
2022/03/30 12:02:24;;;;;;;4.23;1.20;;;;;;;;;;5049478;28;20512;-47
2022/03/30 12:04:51;;;;;;;2.10;1.20;;;;;;;;;;5041503;28;20030;-47
2022/03/30 12:07:21;;;;;;;1.98;1.10;;;;;;;;;;5029990;28;20036;-48
2022/03/30 12:09:48;;;;;;;4.55;1.20;;;;;;;;;;5029572;28;20048;-46
2022/03/30 12:12:27;;;;;;;1.80;1.10;;;;;;;;;;5029786;28;20040;-47
2022/03/30 12:15:01;;;;;;;1.70;0.93;;;;;;;;;;5028498;28;20037;-47
2022/03/30 12:17:28;;;;;;;3.45;1.20;;;;;;;;;;5046268;28;20047;-49
2022/03/30 12:19:54;;;;;;;4.07;1.30;;;;;;;;;;5045703;28;20062;-48
2022/03/30 12:22:24;;;;;;;2.88;1.20;;;;;;;;;;5028003;28;20080;-49
2022/03/30 12:24:51;;;;;;;4.78;1.75;;;;;;;;;;5033601;28;20033;-48
2022/03/30 12:27:26;;;;;;;2.70;1.13;;;;;;;;;;5033618;28;20045;-47
2022/03/30 12:29:57;;;;;;;3.05;1.10;;;;;;;;;;5031329;28;20036;-47
2022/03/30 12:32:25;;;;;;;2.92;1.40;;;;;;;;;;5039888;28;20065;-47
2022/03/30 12:35:09;;;;;;;2.63;1.17;;;;;;;;;;5045447;28;20045;-50
2022/03/30 12:37:36;;;;;;;3.28;1.15;;;;;;;;;;5028403;28;20120;-49
2022/03/30 12:40:10;;;;;;;2.38;1.00;;;;;;;;;;5025421;28;20116;-48
2022/03/30 12:42:36;;;;;;;2.53;0.85;;;;;;;;;;5051874;28;20033;-48
2022/03/30 12:45:08;;;;;;;4.32;1.38;;;;;;;;;;5050781;28;20025;-48
2022/03/30 12:47:36;;;;;;;3.22;0.98;;;;;;;;;;5031274;28;20373;-49
2022/03/30 12:50:23;;;;;;;2.45;1.05;;;;;;;;;;5033235;28;20474;-50
2022/03/30 12:52:51;;;;;;;3.53;1.40;;;;;;;;;;5032915;28;20435;-46
2022/03/30 12:55:32;;;;;;;2.63;1.00;;;;;;;;;;5031897;28;20504;-49
2022/03/30 12:58:07;;;;;;;2.10;1.13;;;;;;;;;;5027816;28;20079;-50
2022/03/30 13:00:45;;;;;;;2.58;1.27;;;;;;;;;;5039398;28;20485;-47
2022/03/30 13:03:15;;;;;;;5.65;1.25;;;;;;;;;;5040723;28;20025;-48
2022/03/30 13:05:46;;;;;;;1.17;0.80;;;;;;;;;;5047526;28;20029;-50
2022/03/30 13:08:21;;;;;;;2.17;1.02;;;;;;;;;;5027793;28;20032;-47
2022/03/30 13:10:47;;;;;;;2.80;1.00;;;;;;;;;;5027348;28;20045;-46
2022/03/30 13:13:15;;;;;;;4.32;1.42;;;;;;;;;;5028991;28;20028;-48
2022/03/30 13:15:42;;;;;;;2.33;0.98;;;;;;;;;;5027216;28;20068;-48
2022/03/30 13:18:10;;;;;;;2.42;1.33;;;;;;;;;;5026015;28;20059;-48
2022/03/30 13:20:37;;;;;;;2.53;1.02;;;;;;;;;;5025638;28;20554;-46
2022/03/30 13:23:07;;;;;;;2.55;1.20;;;;;;;;;;5024313;28;20030;-47
2022/03/30 13:25:35;;;;;;;4.07;2.00;;;;;;;;;;5025246;28;20115;-48
2022/03/30 13:28:03;;;;;;;2.53;1.20;;;;;;;;;;5032184;28;20057;-47
2022/03/30 13:30:29;;;;;;;2.88;1.02;;;;;;;;;;5037616;28;20060;-48
2022/03/30 13:32:56;;;;;;;4.05;1.52;;;;;;;;;;5035763;28;20079;-48
2022/03/30 13:35:23;;;;;;;2.88;1.10;;;;;;;;;;5027636;28;20054;-48
2022/03/30 13:37:49;;;;;;;5.05;1.73;;;;;;;;;;5045913;28;20021;-52
2022/03/30 13:40:16;;;;;;;3.85;1.77;;;;;;;;;;5034681;28;20117;-49
2022/03/30 13:42:42;;;;;;;3.53;1.25;;;;;;;;;;5025002;28;20030;-51
2022/03/30 13:45:08;;;;;;;3.60;1.17;;;;;;;;;;5025476;28;20524;-48
2022/03/30 13:47:35;;;;;;;2.97;1.15;;;;;;;;;;5026879;28;20066;-50
2022/03/30 13:50:03;;;;;;;3.42;0.98;;;;;;;;;;5032917;28;20032;-48
2022/03/30 13:52:29;;;;;;;4.40;1.13;;;;;;;;;;5024755;28;20028;-50
2022/03/30 13:54:55;;;;;;;3.47;1.20;;;;;;;;;;5025558;28;20121;-47
2022/03/30 13:57:22;;;;;;;3.70;1.05;;;;;;;;;;5026043;28;20021;-48
2022/03/30 13:59:48;;;;;;;3.80;1.20;;;;;;;;;;5025972;28;20036;-49
2022/03/30 14:02:14;;;;;;;2.17;0.93;;;;;;;;;;5025788;28;20519;-50
2022/03/30 14:04:41;;;;;;;2.20;1.02;;;;;;;;;;5024051;28;20022;-50
2022/03/30 14:07:07;;;;;;;1.70;1.08;;;;;;;;;;5025749;28;20037;-48
2022/03/30 14:09:34;;;;;;;2.03;0.90;;;;;;;;;;5025246;28;20052;-51
2022/03/30 14:12:01;;;;;;;2.53;1.00;;;;;;;;;;5025494;28;20037;-47
2022/03/30 14:14:29;;;;;;;1.63;1.00;;;;;;;;;;5025082;28;20029;-50
2022/03/30 14:16:55;;;;;;;2.53;0.93;;;;;;;;;;5023985;28;20432;-49
2022/03/30 14:19:22;;;;;;;1.75;0.70;;;;;;;;;;5025342;28;20186;-49
2022/03/30 14:21:48;;;;;;;1.98;0.70;;;;;;;;;;5025471;28;20032;-50
2022/03/30 14:24:15;;;;;;;1.52;0.90;;;;;;;;;;5025038;28;20026;-50
2022/03/30 14:26:41;;;;;;;2.22;0.88;;;;;;;;;;5025433;28;20080;-48
2022/03/30 14:29:07;;;;;;;1.33;0.80;;;;;;;;;;5025246;28;20462;-48
2022/03/30 14:31:34;;;;;;;3.03;0.82;;;;;;;;;;5025004;28;20040;-47
2022/03/30 14:34:00;;;;;;;2.20;0.85;;;;;;;;;;5025050;28;20038;-48
2022/03/30 14:36:27;;;;;;;1.48;1.00;;;;;;;;;;5025062;28;20033;-51
2022/03/30 14:38:53;;;;;;;2.50;1.00;;;;;;;;;;5024917;28;20412;-48
2022/03/30 14:41:19;;;;;;;2.75;0.95;;;;;;;;;;5025634;28;20424;-48
2022/03/30 14:43:46;;;;;;;3.25;1.40;;;;;;;;;;5024630;28;20036;-51
2022/03/30 14:46:12;;;;;;;2.33;1.10;;;;;;;;;;5024830;28;20021;-48
2022/03/30 14:48:39;;;;;;;2.22;1.00;;;;;;;;;;5023608;28;20033;-51
2022/03/30 14:51:07;;;;;;;4.00;1.40;;;;;;;;;;5025058;28;20060;-51
2022/03/30 14:53:36;;;;;;;3.28;1.00;;;;;;;;;;5024321;28;20233;-50
2022/03/30 14:56:03;;;;;;;3.92;1.30;;;;;;;;;;5025047;28;20048;-50
2022/03/30 14:58:29;;;;;;;3.15;1.00;;;;;;;;;;5024689;28;20056;-52
2022/03/30 15:00:57;;;;;;;2.38;0.98;;;;;;;;;;5024595;28;20075;-47
2022/03/30 15:03:23;;;;;;;3.70;1.48;;;;;;;;;;5024864;28;20033;-48
2022/03/30 15:05:49;;;;;;;1.95;1.25;;;;;;;;;;5025206;28;20463;-50
2022/03/30 15:08:16;;;;;;;2.97;1.33;;;;;;;;;;5024558;28;20025;-49
2022/03/30 15:10:42;;;;;;;2.28;1.10;;;;;;;;;;5024724;28;20037;-48
2022/03/30 15:13:08;;;;;;;3.75;1.20;;;;;;;;;;5024679;28;20041;-48